History for KNYNEWYO805

Frying Pan NYC, New York, NY — Current Conditions
Daily Summary for April 26, 2018
  Current: High: Low: Average:
Temperature: 53.1°F 53.4°F 51.8°F 52.6°F
Dew Point: 52.7°F 53.1°F 51.3°F 52.3°F
Humidity: 99% 99% 99% 99%
Wind Speed: - 1.8mph - 0.0mph
Wind Gust: - 1.8mph - -
Wind: North - - South
Pressure: 28.95in 29.00in 28.94in -
Precipitation: 0.00in      
Statistics for the rest of the month
    High: Low: Average:
Temperature:   83.5°F 32.0°F 50.8°F
Dew Point:   66.4°F -40.0°F 37.6°F
Humidity:   99.0% 19.0% 69.7%
Wind Speed:   18.6mph from the SSW - 2.7mph
Wind Gust:   18.6mph from the WNW - -
Wind:   - - SSE
Pressure:   29.84in 28.76in -
Precipitation:   0.00in    
KNYNEWYO805 Weather Graph
Tabular Data for April 26, 2018
Time Temp. Dew Point Pressure Wind Gust Humidity Rainfall Solar Radiation
00:03 52.7°F 52.3°F 29.00in 0.0mph 99% 0.00in -9999 watts/m^2
00:08 52.7°F 52.3°F 29.00in 0.0mph 99% 0.00in -9999 watts/m^2
00:13 52.5°F 52.2°F 29.00in 1.8mph 99% 0.00in -9999 watts/m^2
00:18 52.3°F 52.0°F 28.99in 1.8mph 99% 0.00in -9999 watts/m^2
00:23 52.5°F 52.2°F 28.99in 1.8mph 99% 0.00in -9999 watts/m^2
00:28 52.7°F 52.3°F 28.98in 1.8mph 99% 0.00in -9999 watts/m^2
00:33 52.9°F 52.5°F 28.98in 1.8mph 99% 0.00in -9999 watts/m^2
00:38 53.1°F 52.7°F 28.98in 1.8mph 99% 0.00in -9999 watts/m^2
00:43 52.9°F 52.5°F 28.98in 1.8mph 99% 0.00in -9999 watts/m^2
00:48 52.9°F 52.5°F 28.98in 1.8mph 99% 0.00in -9999 watts/m^2
00:53 52.9°F 52.5°F 28.98in 1.8mph 99% 0.00in -9999 watts/m^2
00:58 52.9°F 52.5°F 28.98in 1.8mph 99% 0.00in -9999 watts/m^2
01:03 52.9°F 52.5°F 28.98in 1.8mph 99% 0.00in -9999 watts/m^2
01:08 52.5°F 52.2°F 28.98in 0.0mph 99% 0.00in -9999 watts/m^2
01:13 52.7°F 52.3°F 28.98in 0.0mph 99% 0.00in -9999 watts/m^2
01:18 52.9°F 52.5°F 28.97in 0.0mph 99% 0.00in -9999 watts/m^2
01:23 53.1°F 52.7°F 28.97in 0.0mph 99% 0.00in -9999 watts/m^2
01:28 53.1°F 52.7°F 28.97in - 99% 0.00in -9999 watts/m^2
01:33 53.2°F 52.9°F 28.97in - 99% 0.00in -9999 watts/m^2
01:38 53.4°F 53.1°F 28.96in - 99% 0.00in -9999 watts/m^2
01:43 53.1°F 52.7°F 28.96in - 99% 0.00in -9999 watts/m^2
01:48 52.9°F 52.5°F 28.96in - 99% 0.00in -9999 watts/m^2
01:53 52.9°F 52.5°F 28.95in - 99% 0.00in -9999 watts/m^2
01:58 52.7°F 52.3°F 28.96in - 99% 0.00in -9999 watts/m^2
02:03 52.3°F 52.0°F 28.95in - 99% 0.00in -9999 watts/m^2
02:08 52.2°F 51.8°F 28.95in - 99% 0.00in -9999 watts/m^2
02:13 52.0°F 51.6°F 28.95in - 99% 0.00in -9999 watts/m^2
02:19 51.8°F 51.4°F 28.95in - 99% 0.00in -9999 watts/m^2
02:24 51.8°F 51.4°F 28.95in - 99% 0.00in -9999 watts/m^2
02:29 51.8°F 51.4°F 28.95in - 99% 0.00in -9999 watts/m^2
02:34 51.8°F 51.4°F 28.95in - 99% 0.00in -9999 watts/m^2
02:39 52.0°F 51.6°F 28.95in - 99% 0.00in -9999 watts/m^2
02:44 52.0°F 51.6°F 28.95in - 99% 0.00in -9999 watts/m^2
02:49 52.2°F 51.8°F 28.95in - 99% 0.00in -9999 watts/m^2
02:54 52.5°F 52.2°F 28.95in - 99% 0.00in -9999 watts/m^2
02:59 52.7°F 52.3°F 28.95in - 99% 0.00in -9999 watts/m^2
03:04 52.9°F 52.5°F 28.94in - 99% 0.00in -9999 watts/m^2
03:09 53.1°F 52.7°F 28.95in - 99% 0.00in -9999 watts/m^2
03:14 53.2°F 52.9°F 28.95in - 99% 0.00in -9999 watts/m^2
03:19 53.2°F 52.9°F 28.95in - 99% 0.00in -9999 watts/m^2
Comma Delimited File
Powered by Weather Underground, Inc.